Aérodrome :
LOGIN :

S'inscrire | Disclaimer

   EN    FR    IT 

 










Légende :    VFR   VFR Marginal   IFR   IFR Intensif   IFR Très Intensif
Visi : 
Plafond : 
>= 8 km
>= 3000ft
5 à 8 km
1000 à 3000 ft
1500m à 5 km
500 à 1000 ft
800 à 1500m
200 à 500 ft
< 800m
< 200 ft
Symboles :   Orages  Brouillard  Fortes neiges  Fortes précipitations  Vent > 20 kt
SIGMETs :   Divers  Orages  Givrage  Turbulence  Onde Orograph.  Cendres Volcan.







- Altitude de l'aérodrome : 1910 ft
- Code IATA : RDZ
- Voir les cartes d'approche


LFCR - Rodez

DERNIER METAR :
  • 290700Z AUTO 27014KT 9999 BKN012 BKN022 OVC032 12/10 Q1007 TEMPO 27015G25KT 4000 SHRA BKN006 SCT015TCU FEW025CB

METARs EXPIRÉS :
  • 290630Z AUTO 26014KT 9999 BKN008 OVC013 12/11 Q1007 TEMPO 27015G25KT 4000 SHRA BKN006 SCT015TCU FEW025CB
  • 290600Z AUTO 26013KT 9999 BKN009 BKN013 OVC019 12/11 Q1007 TEMPO 27015G25KT 4000 SHRA BKN006 SCT015TCU FEW025CB
  • 290530Z AUTO 27016KT 9999 -RA BKN010 OVC030 12/11 Q1006 TEMPO 27015G25KT 4000 SHRA BKN006 SCT015TCU FEW025CB
  • 290500Z AUTO 27014KT 9999 -RA BKN007 OVC012 12/11 Q1006 BECMG BKN008 FEW020TCU BKN040
  • 290430Z AUTO 27017KT 9999 -RA BKN010/// OVC017/// ///TCU 12/11 Q1006 NOSIG

TAF TAF LFCR
Valide du 29 à 06h jusqu'au 30 à 06h UTC


290500Z 2906/3006 27015KT 9999 BKN008 SCT020TCU
BECMG 2908/2910 BKN016TCU
TEMPO 2906/2920 27015G25KT 4000 SHRA BKN006 SCT015TCU FEW025CB
PROB30
TEMPO 2911/2916 2000 TSRA
BECMG 2920/2922 BKN025
BECMG 2922/3001 20010KT
BECMG 3003/3005 BKN015TCU
Pas de NOTAMs connus pour ce terrain.
1 SIGMET publié pour la FIR Bordeaux (LFBB) :
 
Turbulence forte
LFBB SIGMET 1 VALID 290530/290930 LFPW
LFBB BORDEAUX FIR/UIR SEV TURB FCST WI N4300 W00130 - N4300 W00145 - N4445 W00145 - N4500 W00100 SFC/FL050 STNR INTSF=



MET'MAP, la Météo Aéronautique d'un coup d'oeil ! - Copyright ORBIFLY Décembre 2007 - Disclaimer

ORBIFLY MET'MAP TEAM :

Programmation & Développement : Alexandra Zaïnal
Conception & Développement : Baudouin d'Aumeries
Co-Programmation & Développement : Marc-Olivier Méhu
Soutien technique & logistique : Manuel Goepfert

Contact : metmap@orbifly.com




SOURCES & CREDITS :

   NOAA